Time;durP1;ratioP1;P1;durP2;ratioP2;P2;SDS_P1;SDS_P2;PMS_P1;PMS_P2;Temp;Humidity;BMP_temperature;BMP_pressure;BME280_temperature;BME280_humidity;BME280_pressure;Samples;Min_cycle;Max_cycle;Signal;HPM_P1;HPM_P2
2022/04/15 00:00:36;;;;;;;40.93;37.40;;;;;;;21.77;28.99;95496.78;6176512;28;104495;-60
2022/04/15 00:03:39;;;;;;;40.17;36.70;;;;;;;21.77;28.89;95496.78;6179277;28;104328;-60
2022/04/15 00:06:41;;;;;;;41.47;37.97;;;;;;;21.76;28.88;95497.06;6186129;28;102940;-59
2022/04/15 00:09:42;;;;;;;40.17;36.60;;;;;;;21.75;28.89;95498.16;6186132;28;103090;-60
2022/04/15 00:12:44;;;;;;;41.37;37.87;;;;;;;21.74;28.84;95497.38;6197260;28;102949;-60
2022/04/15 00:15:46;;;;;;;41.70;38.30;;;;;;;21.74;28.93;95499.25;6177765;28;104481;-60
2022/04/15 00:18:48;;;;;;;39.90;36.53;;;;;;;21.74;29.00;95499.25;6186933;28;102991;-60
2022/04/15 00:21:50;;;;;;;41.20;37.80;;;;;;;21.73;28.86;95495.78;6200378;28;103149;-60
2022/04/15 00:24:52;;;;;;;41.17;37.60;;;;;;;21.73;28.76;95503.00;6207040;28;104343;-61
2022/04/15 00:27:53;;;;;;;40.90;37.50;;;;;;;21.71;28.74;95502.50;6182101;28;104520;-59
2022/04/15 00:30:55;;;;;;;41.27;37.80;;;;;;;21.72;29.11;95504.88;6186858;28;103583;-60
2022/04/15 00:33:57;;;;;;;39.60;36.20;;;;;;;21.72;29.02;95498.75;6186952;28;102923;-59
2022/04/15 00:36:59;;;;;;;38.87;35.57;;;;;;;21.71;29.12;95507.81;6177894;28;104142;-60
2022/04/15 00:40:02;;;;;;;39.40;36.10;;;;;;;21.69;29.10;95499.34;6186953;28;102832;-60
2022/04/15 00:43:04;;;;;;;38.27;35.07;;;;;;;21.71;29.17;95510.50;6193984;28;103121;-60
2022/04/15 00:46:08;;;;;;;37.83;34.63;;;;;;;21.68;28.92;95498.56;6192264;28;104067;-60
2022/04/15 00:49:10;;;;;;;37.70;34.47;;;;;;;21.70;28.93;95503.59;6176842;28;103043;-61
2022/04/15 00:52:13;;;;;;;38.30;35.10;;;;;;;21.67;28.85;95501.47;6184494;28;103497;-59
2022/04/15 00:55:21;;;;;;;38.00;34.90;;;;;;;21.69;29.25;95502.00;6187609;28;104208;-59
2022/04/15 00:58:25;;;;;;;36.63;33.50;;;;;;;21.69;29.20;95510.78;6185951;28;103982;-59
2022/04/15 01:01:27;;;;;;;37.93;34.63;;;;;;;21.66;29.20;95506.00;6189620;28;103162;-60
2022/04/15 01:04:31;;;;;;;37.07;33.90;;;;;;;21.66;28.92;95505.22;6179110;28;103188;-60
2022/04/15 01:07:35;;;;;;;37.97;34.67;;;;;;;21.67;28.76;95502.25;6199179;28;103110;-60
2022/04/15 01:10:39;;;;;;;37.00;33.90;;;;;;;21.66;29.11;95510.56;6183562;28;103929;-59
2022/04/15 01:13:42;;;;;;;35.77;32.70;;;;;;;21.67;29.21;95506.81;6190110;28;105108;-60
2022/04/15 01:16:43;;;;;;;35.83;32.73;;;;;;;21.66;29.23;95507.88;6210060;28;103942;-59
2022/04/15 01:19:45;;;;;;;36.83;33.83;;;;;;;21.65;28.90;95508.97;6186679;28;103965;-59
2022/04/15 01:23:07;;;;;;;35.10;32.17;;;;;;;21.65;29.24;95501.78;6174857;28;102956;-59
2022/04/15 01:26:09;;;;;;;35.33;32.43;;;;;;;21.64;28.86;95500.19;6198244;28;103925;-59
2022/04/15 01:29:11;;;;;;;33.30;30.43;;;;;;;21.64;29.08;95500.19;6190385;28;103757;-59
2022/04/15 01:32:12;;;;;;;34.27;31.33;;;;;;;21.63;29.12;95501.28;6205079;28;104040;-59
2022/04/15 01:35:16;;;;;;;33.63;30.80;;;;;;;21.63;29.07;95497.81;6200479;28;103825;-59
2022/04/15 01:38:18;;;;;;;33.70;30.30;;;;;;;21.63;28.97;95498.63;6188544;28;103069;-58
2022/04/15 01:41:21;;;;;;;31.30;28.70;;;;;;;21.61;29.03;95498.13;6192755;28;103015;-59
2022/04/15 01:44:23;;;;;;;31.43;28.67;;;;;;;21.63;29.03;95495.16;6188629;28;104050;-59
2022/04/15 01:47:25;;;;;;;32.50;29.70;;;;;;;21.61;29.25;95478.69;6205575;28;103252;-59
2022/04/15 01:50:28;;;;;;;31.57;28.87;;;;;;;21.59;29.21;95472.88;6190911;28;103200;-58
2022/04/15 01:53:30;;;;;;;30.17;27.57;;;;;;;21.58;29.33;95476.59;6185540;28;103189;-59
2022/04/15 01:56:31;;;;;;;29.90;27.40;;;;;;;21.61;29.06;95471.47;6175322;28;104268;-58
2022/04/15 01:59:33;;;;;;;29.83;27.37;;;;;;;21.59;29.29;95473.66;6184583;28;103094;-60
2022/04/15 02:02:35;;;;;;;29.87;27.30;;;;;;;21.59;29.08;95480.84;6196770;28;103972;-58
2022/04/15 02:05:36;;;;;;;29.17;26.87;;;;;;;21.60;29.12;95477.09;6185719;28;105731;-60
2022/04/15 02:08:38;;;;;;;30.57;28.07;;;;;;;21.59;29.09;95471.00;6179396;28;105046;-59
2022/04/15 02:11:40;;;;;;;29.30;26.73;;;;;;;21.58;29.24;95473.94;6173555;28;104591;-59
2022/04/15 02:14:42;;;;;;;29.93;27.43;;;;;;;21.58;29.28;95484.59;6189871;28;103885;-60
2022/04/15 02:17:44;;;;;;;28.73;26.43;;;;;;;21.59;29.23;95476.31;6194779;28;103296;-59
2022/04/15 02:20:45;;;;;;;28.27;25.97;;;;;;;21.56;29.15;95476.91;6182344;28;104108;-58
2022/04/15 02:23:47;;;;;;;30.47;27.73;;;;;;;21.57;29.14;95469.69;6185486;28;103304;-59
2022/04/15 02:26:49;;;;;;;30.00;27.60;;;;;;;21.55;29.16;95478.00;6180977;28;104806;-59
2022/04/15 02:29:50;;;;;;;30.40;27.97;;;;;;;21.56;28.94;95478.78;6184645;28;103940;-58
2022/04/15 02:32:52;;;;;;;31.83;29.20;;;;;;;21.53;29.62;95482.81;6199699;28;103618;-59
2022/04/15 02:35:55;;;;;;;32.00;29.40;;;;;;;21.54;29.50;95486.28;6208489;28;103271;-58
2022/04/15 02:38:57;;;;;;;31.40;28.80;;;;;;;21.52;29.20;95483.91;6187868;28;104076;-59
2022/04/15 02:42:00;;;;;;;33.80;30.87;;;;;;;21.52;29.50;95479.38;6176097;28;103155;-59
2022/04/15 02:45:03;;;;;;;32.77;30.07;;;;;;;21.55;29.50;95478.00;6185260;28;104140;-59
2022/04/15 02:48:05;;;;;;;33.20;30.47;;;;;;;21.52;29.61;95478.56;6204270;28;103488;-59
2022/04/15 02:51:08;;;;;;;34.73;31.80;;;;;;;21.54;29.39;95478.28;6189402;28;103520;-59
2022/04/15 02:54:09;;;;;;;35.47;32.47;;;;;;;21.51;29.33;95479.66;6168537;28;103096;-59
2022/04/15 02:57:11;;;;;;;34.70;31.80;;;;;;;21.53;29.48;95488.13;6185464;28;102739;-59
2022/04/15 03:00:14;;;;;;;36.43;33.37;;;;;;;21.50;29.39;95486.81;6199037;28;103951;-59
2022/04/15 03:03:15;;;;;;;35.17;32.27;;;;;;;21.47;29.03;95484.75;6188868;28;103268;-58
2022/04/15 03:06:17;;;;;;;36.20;33.20;;;;;;;21.50;29.55;95486.81;6180697;28;103210;-59
2022/04/15 03:09:21;;;;;;;37.27;34.27;;;;;;;21.50;29.40;95486.81;6199480;28;103246;-58
2022/04/15 03:12:23;;;;;;;35.77;32.87;;;;;;;21.49;29.22;95490.56;6188750;28;102892;-60
2022/04/15 03:15:25;;;;;;;35.60;32.60;;;;;;;21.48;29.50;95489.00;6191366;28;103084;-59
2022/04/15 03:18:26;;;;;;;30.17;27.07;;;;;;;21.46;29.58;95479.72;6209740;28;103807;-58
2022/04/15 03:21:28;;;;;;;16.13;14.80;;;;;;;21.17;28.11;95480.69;6193918;28;103739;-58
2022/04/15 03:24:30;;;;;;;13.90;12.40;;;;;;;21.06;27.85;95481.91;6191772;28;104003;-62
2022/04/15 03:27:32;;;;;;;12.20;11.20;;;;;;;21.10;27.42;95480.25;6177239;28;104294;-61
2022/04/15 03:30:34;;;;;;;10.37;9.47;;;;;;;21.13;27.21;95481.53;6187910;28;102998;-61
2022/04/15 03:33:36;;;;;;;10.40;8.60;;;;;;;21.09;27.29;95480.53;6188339;28;104330;-61
2022/04/15 03:36:38;;;;;;;10.60;8.03;;;;;;;21.07;27.51;95488.81;6188065;28;103015;-62
2022/04/15 03:39:40;;;;;;;9.40;8.50;;;;;;;21.06;27.13;95491.78;6177225;28;103530;-61
2022/04/15 03:42:50;;;;;;;8.33;7.43;;;;;;;21.03;27.02;95497.63;6193840;28;103918;-64
2022/04/15 03:45:52;;;;;;;6.63;6.03;;;;;;;21.00;27.10;95493.66;6193771;28;103037;-65
2022/04/15 03:48:53;;;;;;;19.17;6.30;;;;;;;21.01;26.76;95500.59;6194763;28;103512;-63
2022/04/15 03:51:55;;;;;;;9.50;6.33;;;;;;;20.91;27.04;95496.19;6194698;28;103011;-62
2022/04/15 03:54:58;;;;;;;8.43;5.43;;;;;;;20.93;27.23;95488.72;6184452;28;103314;-62
2022/04/15 03:57:59;;;;;;;7.57;5.57;;;;;;;20.87;26.78;95495.19;6159192;28;103194;-64
2022/04/15 04:01:02;;;;;;;6.13;5.13;;;;;;;20.87;26.86;95497.06;6175656;28;104045;-62
2022/04/15 04:04:04;;;;;;;7.93;5.70;;;;;;;20.83;26.84;95499.47;6186163;28;103494;-63
2022/04/15 04:07:05;;;;;;;7.80;4.80;;;;;;;20.86;26.91;95506.91;6179903;28;102792;-64
2022/04/15 04:10:08;;;;;;;6.10;5.50;;;;;;;21.09;27.68;95507.16;6178015;28;103562;-68
2022/04/15 04:13:10;;;;;;;6.60;6.00;;;;;;;21.18;27.39;95513.44;6179369;28;104276;-67
2022/04/15 04:16:12;;;;;;;6.23;5.63;;;;;;;21.23;27.41;95516.00;6187095;28;103933;-69
2022/04/15 04:19:13;;;;;;;7.50;4.50;;;;;;;21.13;27.50;95511.59;6180167;28;102974;-67
2022/04/15 04:22:15;;;;;;;5.23;4.73;;;;;;;20.58;26.59;95513.09;6186556;28;103545;-60
2022/04/15 04:25:17;;;;;;;5.43;5.03;;;;;;;20.45;26.66;95517.22;6177915;28;102895;-59
2022/04/15 04:28:19;;;;;;;4.40;4.00;;;;;;;20.26;26.64;95508.41;6188255;28;103156;-59
2022/04/15 04:31:22;;;;;;;5.13;4.63;;;;;;;20.25;26.59;95518.25;6188059;28;103053;-60
2022/04/15 04:34:23;;;;;;;5.60;4.60;;;;;;;20.12;26.47;95510.91;6182960;28;103848;-60
2022/04/15 04:37:25;;;;;;;5.80;5.07;;;;;;;20.12;26.73;95512.78;6182022;28;103165;-59
2022/04/15 04:40:28;;;;;;;6.30;5.33;;;;;;;20.11;26.42;95525.25;6185814;28;103402;-59
2022/04/15 04:43:29;;;;;;;7.47;5.63;;;;;;;20.08;26.61;95523.16;6184776;28;103318;-59
2022/04/15 04:46:32;;;;;;;6.73;5.73;;;;;;;20.09;26.67;95523.97;6174757;28;103274;-59
2022/04/15 04:49:34;;;;;;;7.23;6.47;;;;;;;20.06;26.65;95520.00;6184748;28;103075;-59
2022/04/15 04:52:37;;;;;;;7.60;6.20;;;;;;;20.02;26.71;95524.31;6185907;28;102964;-59
2022/04/15 04:55:39;;;;;;;7.97;5.60;;;;;;;20.04;26.55;95535.44;6188037;28;104135;-59
2022/04/15 04:58:41;;;;;;;10.80;5.90;;;;;;;20.03;26.70;95533.84;6176854;28;103034;-60
2022/04/15 05:01:43;;;;;;;9.37;6.20;;;;;;;20.04;26.68;95535.44;6187761;28;103137;-60
2022/04/15 05:04:45;;;;;;;15.10;6.53;;;;;;;20.01;26.75;95536.00;6186987;28;102960;-57
2022/04/15 05:07:47;;;;;;;11.33;7.43;;;;;;;19.99;26.62;95533.59;6187632;28;103036;-59
2022/04/15 05:10:48;;;;;;;11.27;6.10;;;;;;;20.00;26.75;95534.41;6176433;28;104145;-61
2022/04/15 05:13:50;;;;;;;13.87;7.23;;;;;;;19.96;26.73;95525.41;6186280;28;103368;-60
2022/04/15 05:16:52;;;;;;;9.93;6.63;;;;;;;19.91;26.82;95539.53;6187139;28;103444;-58
2022/04/15 05:19:54;;;;;;;9.80;7.67;;;;;;;19.92;26.83;95538.44;6182240;28;104133;-57
2022/04/15 05:22:55;;;;;;;12.30;7.10;;;;;;;19.93;26.84;95533.94;6181920;28;102834;-60
2022/04/15 05:25:57;;;;;;;10.23;6.90;;;;;;;19.93;26.74;95541.91;6186479;28;102828;-59
2022/04/15 05:29:00;;;;;;;10.27;6.70;;;;;;;19.92;26.80;95532.34;6187271;28;103279;-59
2022/04/15 05:32:03;;;;;;;8.30;6.50;;;;;;;19.88;27.01;95532.13;6176581;28;103482;-59
2022/04/15 05:35:05;;;;;;;12.87;6.30;;;;;;;19.95;26.89;95535.25;6186800;28;104537;-59
2022/04/15 05:38:08;;;;;;;9.67;7.07;;;;;;;19.96;27.13;95534.16;6201965;28;103192;-59
2022/04/15 05:41:10;;;;;;;11.53;6.47;;;;;;;19.99;27.10;95527.50;6186475;28;103903;-59
2022/04/15 05:44:13;;;;;;;9.70;6.23;;;;;;;20.00;26.84;95526.44;6176432;28;102943;-59
2022/04/15 05:47:15;;;;;;;11.47;7.60;;;;;;;20.13;26.82;95528.44;6186580;28;102794;-59
2022/04/15 05:50:18;;;;;;;9.87;6.20;;;;;;;20.24;26.64;95524.63;6184339;28;103117;-58
2022/04/15 05:53:20;;;;;;;9.60;6.57;;;;;;;20.38;26.76;95526.63;6186895;28;102934;-58
2022/04/15 05:56:21;;;;;;;9.37;7.10;;;;;;;20.44;26.65;95520.16;6175100;28;103850;-59
2022/04/15 05:59:23;;;;;;;9.20;6.60;;;;;;;20.54;26.53;95526.19;6185158;28;103294;-60
2022/04/15 06:02:25;;;;;;;8.20;7.40;;;;;;;20.66;26.46;95520.44;6185371;28;103232;-58
2022/04/15 06:05:27;;;;;;;10.00;8.30;;;;;;;20.75;26.41;95524.06;6177816;28;102893;-59
2022/04/15 06:08:29;;;;;;;8.00;7.20;;;;;;;20.87;26.44;95521.78;6185017;28;102879;-59
2022/04/15 06:11:30;;;;;;;7.37;6.67;;;;;;;20.96;26.67;95521.94;6185720;28;103168;-59
2022/04/15 06:14:35;;;;;;;10.40;6.60;;;;;;;21.05;26.77;95516.81;6185850;28;103300;-60
2022/04/15 06:17:37;;;;;;;7.33;6.50;;;;;;;21.10;26.51;95520.16;6174981;28;103026;-58
2022/04/15 06:20:41;;;;;;;12.20;8.50;;;;;;;21.15;26.64;95511.31;6186790;28;104567;-60
2022/04/15 06:23:42;;;;;;;10.60;9.10;;;;;;;21.25;26.57;95521.84;6185997;28;102881;-56
2022/04/15 06:26:44;;;;;;;10.03;9.03;;;;;;;21.32;26.57;95522.25;6187345;28;104049;-60
2022/04/15 06:29:49;;;;;;;14.03;10.47;;;;;;;21.38;26.67;95526.44;6180349;28;104353;-60
2022/04/15 06:32:52;;;;;;;10.47;9.47;;;;;;;21.46;26.35;95522.31;6190275;28;103345;-59
2022/04/15 06:35:54;;;;;;;15.87;9.60;;;;;;;21.53;26.65;95520.09;6190695;28;103465;-59
2022/04/15 06:38:56;;;;;;;9.23;8.33;;;;;;;21.57;26.48;95522.97;6185431;28;103259;-59
2022/04/15 06:41:57;;;;;;;10.53;8.17;;;;;;;21.67;26.18;95518.25;6183927;28;104863;-59
2022/04/15 06:44:59;;;;;;;13.90;8.63;;;;;;;21.71;26.33;95515.81;6190536;28;103950;-59
2022/04/15 06:48:01;;;;;;;9.97;8.67;;;;;;;21.79;26.12;95515.13;6189669;28;103253;-58
2022/04/15 06:51:03;;;;;;;9.77;8.77;;;;;;;21.87;26.42;95513.72;6180187;28;104098;-58
2022/04/15 06:54:06;;;;;;;12.63;9.60;;;;;;;21.94;26.42;95517.56;6189921;28;102919;-58
2022/04/15 06:57:09;;;;;;;13.57;10.00;;;;;;;22.05;26.11;95512.88;6190170;28;103124;-61
2022/04/15 07:00:13;;;;;;;9.83;8.83;;;;;;;22.13;26.88;95517.50;6189455;28;103087;-58
2022/04/15 07:03:15;;;;;;;11.70;9.73;;;;;;;22.21;27.37;95508.06;6178940;28;103554;-64
2022/04/15 07:06:17;;;;;;;13.40;10.80;;;;;;;22.21;26.88;95505.41;6189680;28;103010;-64
2022/04/15 07:09:18;;;;;;;10.73;9.40;;;;;;;22.23;26.98;95505.88;6188469;28;102862;-64
2022/04/15 07:12:20;;;;;;;11.57;10.40;;;;;;;22.25;26.80;95504.50;6189398;28;103183;-64
2022/04/15 07:15:24;;;;;;;13.10;11.30;;;;;;;22.29;27.04;95508.16;6177476;28;103155;-63
2022/04/15 07:18:26;;;;;;;14.17;11.10;;;;;;;22.32;27.11;95504.09;6189309;28;103952;-66
2022/04/15 07:21:27;;;;;;;18.27;12.53;;;;;;;22.32;27.24;95504.88;6189592;28;103242;-63
2022/04/15 07:24:30;;;;;;;15.63;11.10;;;;;;;22.31;26.60;95499.84;6183947;28;104228;-63
2022/04/15 07:27:32;;;;;;;13.77;11.87;;;;;;;22.33;26.61;95503.81;6184054;28;104001;-64
2022/04/15 07:30:34;;;;;;;14.37;12.53;;;;;;;22.35;26.69;95508.88;6189394;28;102809;-62
2022/04/15 07:33:35;;;;;;;14.10;11.07;;;;;;;22.36;26.73;95502.44;6188809;28;104060;-63
2022/04/15 07:39:39;;;;;;;13.67;12.30;;;;;;;22.41;26.87;95499.69;6187893;28;103315;-63
2022/04/15 07:42:41;;;;;;;12.03;10.60;;;;;;;22.42;26.21;95493.25;6189099;28;102967;-63
2022/04/15 07:45:43;;;;;;;15.73;10.87;;;;;;;22.47;26.52;95495.03;6188710;28;103278;-63
2022/04/15 07:48:45;;;;;;;12.40;11.20;;;;;;;22.50;26.28;95492.53;6177524;28;103469;-61
2022/04/15 07:51:48;;;;;;;12.83;11.40;;;;;;;22.50;26.65;95486.41;6188962;28;103104;-64
2022/04/15 07:54:50;;;;;;;13.70;11.43;;;;;;;22.52;26.23;95490.41;6188368;28;103960;-64
2022/04/15 07:57:53;;;;;;;13.53;11.37;;;;;;;22.58;26.08;95494.56;6188605;28;104065;-63
2022/04/15 08:00:55;;;;;;;13.13;11.17;;;;;;;22.61;26.16;95493.97;6177805;28;103044;-64
2022/04/15 08:03:57;;;;;;;12.97;11.77;;;;;;;22.65;26.31;95494.16;6189056;28;104384;-63
2022/04/15 08:07:00;;;;;;;14.40;13.00;;;;;;;22.65;26.83;95484.28;6189384;28;103329;-64
2022/04/15 08:10:03;;;;;;;13.87;12.37;;;;;;;22.69;26.30;95479.16;6182900;28;102819;-64
2022/04/15 08:13:05;;;;;;;13.53;12.13;;;;;;;22.72;26.38;95480.44;6183164;28;103212;-64
2022/04/15 08:16:08;;;;;;;13.90;11.20;;;;;;;22.72;26.48;95477.75;6187988;28;103032;-64
2022/04/15 08:19:10;;;;;;;13.50;11.10;;;;;;;22.73;26.36;95474.00;6188356;28;103437;-65
2022/04/15 08:22:12;;;;;;;12.00;10.80;;;;;;;22.74;25.79;95467.56;6178250;28;103686;-65
2022/04/15 08:25:14;;;;;;;12.73;11.53;;;;;;;22.75;26.56;95463.81;6187851;28;103377;-64
2022/04/15 08:28:16;;;;;;;12.70;11.50;;;;;;;22.77;25.97;95458.97;6188346;28;103378;-65
2022/04/15 08:31:18;;;;;;;11.37;10.27;;;;;;;22.78;26.71;95463.22;6187328;28;103254;-65
2022/04/15 08:34:20;;;;;;;11.77;10.43;;;;;;;22.80;26.76;95461.03;6176353;28;104393;-65
2022/04/15 08:37:24;;;;;;;10.83;9.83;;;;;;;22.81;26.74;95459.94;6188594;28;104233;-65
2022/04/15 08:40:27;;;;;;;12.50;10.33;;;;;;;22.81;26.55;95459.94;6187684;28;103217;-65
2022/04/15 08:43:29;;;;;;;11.40;10.30;;;;;;;22.84;27.02;95456.66;6202524;28;103208;-64
2022/04/15 08:46:31;;;;;;;11.10;9.53;;;;;;;22.85;27.26;95455.56;6176614;28;102927;-63
2022/04/15 08:49:34;;;;;;;11.57;10.43;;;;;;;22.87;27.25;95448.09;6186223;28;103406;-60
2022/04/15 08:52:36;;;;;;;9.70;8.70;;;;;;;22.96;26.55;95441.72;6187618;28;103139;-56
2022/04/15 08:55:39;;;;;;;12.87;10.07;;;;;;;23.02;26.49;95439.75;6181910;28;103099;-60
2022/04/15 08:58:40;;;;;;;10.60;9.50;;;;;;;23.04;26.14;95442.91;6182062;28;104771;-60
2022/04/15 09:01:43;;;;;;;12.77;10.00;;;;;;;23.09;26.72;95433.97;6187437;28;103484;-61
2022/04/15 09:04:47;;;;;;;10.37;9.40;;;;;;;23.08;26.23;95422.50;6187308;28;103093;-61
2022/04/15 09:07:49;;;;;;;11.60;9.30;;;;;;;23.12;26.50;95422.69;6176364;28;103956;-60
2022/04/15 09:10:59;;;;;;;9.50;8.50;;;;;;;23.13;25.87;95413.59;6202092;28;103473;-60
2022/04/15 09:14:07;;;;;;;11.27;8.63;;;;;;;23.15;26.12;95408.72;6187711;28;103598;-59
2022/04/15 09:17:09;;;;;;;9.20;8.30;;;;;;;23.17;26.37;95404.66;6187385;28;103991;-60
2022/04/15 09:20:11;;;;;;;11.00;8.30;;;;;;;23.16;26.08;95400.41;6176736;28;104192;-61
2022/04/15 09:23:14;;;;;;;9.97;8.20;;;;;;;23.15;25.97;95392.72;6185483;28;102998;-60
2022/04/15 09:26:16;;;;;;;8.80;8.00;;;;;;;23.19;25.86;95378.47;6187487;28;103236;-60
2022/04/15 09:29:21;;;;;;;9.97;7.90;;;;;;;23.20;26.20;95380.06;6197695;28;103167;-60
2022/04/15 09:32:24;;;;;;;8.90;8.10;;;;;;;23.21;26.10;95378.94;6181274;28;104056;-60
2022/04/15 09:35:26;;;;;;;7.60;6.90;;;;;;;23.21;25.91;95370.94;6186902;28;103157;-60
2022/04/15 09:38:44;;;;;;;8.50;7.70;;;;;;;23.21;25.78;95370.16;6186249;28;104155;-60
2022/04/15 09:41:56;;;;;;;8.83;7.23;;;;;;;23.22;26.03;95363.72;6176164;28;103904;-58
2022/04/15 09:45:11;;;;;;;7.67;6.87;;;;;;;23.21;26.10;95354.94;6186267;28;103147;-60
2022/04/15 09:48:13;;;;;;;7.80;7.10;;;;;;;23.18;25.58;95350.16;6186709;28;103145;-60
2022/04/15 09:51:19;;;;;;;7.20;6.60;;;;;;;23.16;25.33;95344.34;6186727;28;104007;-60
2022/04/15 09:54:24;;;;;;;7.70;7.00;;;;;;;23.17;25.59;95335.25;6176066;28;103527;-60
2022/04/15 09:57:33;;;;;;;8.63;7.27;;;;;;;23.19;25.83;95337.63;6186911;28;104275;-61
2022/04/15 10:00:36;;;;;;;7.00;6.33;;;;;;;23.18;25.37;95330.69;6187562;28;103584;-60
2022/04/15 10:03:45;;;;;;;6.90;6.30;;;;;;;23.17;25.38;95319.22;6186551;28;103784;-59
2022/04/15 10:06:47;;;;;;;6.60;6.00;;;;;;;23.17;25.71;95313.09;6185762;28;103343;-59
2022/04/15 10:09:49;;;;;;;7.87;6.33;;;;;;;23.15;25.63;95310.75;6190937;28;103211;-59
2022/04/15 10:12:52;;;;;;;8.30;6.70;;;;;;;23.14;25.88;95298.47;6191085;28;102980;-59
2022/04/15 10:15:55;;;;;;;7.97;6.33;;;;;;;23.11;25.78;95296.44;6179475;28;103636;-59
2022/04/15 10:18:59;;;;;;;7.33;5.77;;;;;;;23.11;26.08;95292.97;6191301;28;104878;-59
2022/04/15 10:22:05;;;;;;;5.60;5.10;;;;;;;23.08;25.57;95289.03;6189577;28;102955;-60
2022/04/15 10:25:07;;;;;;;6.13;5.40;;;;;;;23.07;25.90;95290.13;6190749;28;103264;-59
2022/04/15 10:28:13;;;;;;;6.33;5.70;;;;;;;23.07;26.20;95290.13;6180147;28;104148;-59
2022/04/15 10:31:16;;;;;;;6.03;5.43;;;;;;;23.05;25.77;95284.31;6189758;28;103009;-60
2022/04/15 10:34:21;;;;;;;6.70;6.10;;;;;;;23.03;26.27;95275.84;6190297;28;102819;-61
2022/04/15 10:37:46;;;;;;;6.17;5.50;;;;;;;23.02;25.93;95274.25;6185810;28;103449;-58
2022/04/15 10:40:49;;;;;;;6.00;5.40;;;;;;;22.99;25.71;95272.19;6185746;28;104063;-60
2022/04/15 10:43:58;;;;;;;7.00;5.27;;;;;;;22.96;25.79;95268.25;6189804;28;102959;-60
2022/04/15 10:47:17;;;;;;;6.83;5.37;;;;;;;22.95;25.77;95263.22;6190087;28;102941;-60
2022/04/15 10:50:18;;;;;;;5.43;4.93;;;;;;;22.93;26.13;95260.84;6179490;28;103074;-60
2022/04/15 10:53:20;;;;;;;5.80;5.27;;;;;;;22.91;25.86;95260.38;6189517;28;103198;-61
2022/04/15 10:56:24;;;;;;;5.70;5.00;;;;;;;22.89;25.54;95254.56;6190231;28;103306;-59
2022/04/15 11:03:22;;;;;;;6.10;5.40;;;;;;;22.84;25.92;95243.19;6182773;28;104212;-61
2022/04/15 11:06:26;;;;;;;5.20;4.70;;;;;;;22.83;26.12;95231.75;6187683;28;103494;-60
2022/04/15 11:09:34;;;;;;;5.63;4.73;;;;;;;22.83;26.01;95236.28;6189928;28;103367;-59
2022/04/15 11:12:35;;;;;;;6.90;5.60;;;;;;;22.80;25.71;95229.69;6178084;28;102999;-60
2022/04/15 11:15:59;;;;;;;6.70;5.40;;;;;;;22.78;25.94;95233.75;6188833;28;103247;-60
2022/04/15 11:19:01;;;;;;;7.70;5.40;;;;;;;22.78;25.57;95221.19;6189734;28;103387;-60
2022/04/15 11:22:02;;;;;;;5.93;5.30;;;;;;;22.75;25.85;95221.81;6188779;28;103276;-59
2022/04/15 11:25:07;;;;;;;5.70;5.10;;;;;;;22.75;25.72;95221.03;6180216;28;103873;-60
2022/04/15 11:28:10;;;;;;;6.00;5.40;;;;;;;22.74;26.05;95214.13;6188770;28;102781;-60
2022/04/15 11:31:46;;;;;;;5.80;5.20;;;;;;;22.69;26.25;95210.50;6189479;28;104234;-60
2022/04/15 11:34:54;;;;;;;7.30;5.57;;;;;;;22.67;25.92;95211.88;6157560;28;103371;-60
2022/04/15 11:38:01;;;;;;;5.83;5.27;;;;;;;22.69;26.01;95213.16;6188509;28;103044;-55
2022/04/15 11:41:03;;;;;;;6.10;5.57;;;;;;;22.66;26.07;95207.63;6189526;28;104074;-59
2022/04/15 11:44:06;;;;;;;6.03;5.43;;;;;;;22.65;26.45;95206.06;6187315;28;104283;-60
2022/04/15 11:47:19;;;;;;;5.67;5.17;;;;;;;22.63;26.36;95193.03;6178991;28;103230;-60
2022/04/15 11:50:21;;;;;;;5.50;4.97;;;;;;;22.61;26.19;95187.22;6187797;28;103378;-61
2022/04/15 11:53:23;;;;;;;9.27;5.53;;;;;;;22.62;26.74;95182.66;6189315;28;103277;-60
2022/04/15 11:56:26;;;;;;;7.07;6.37;;;;;;;22.60;26.67;95174.97;6188649;28;103253;-60
2022/04/15 11:59:28;;;;;;;5.90;5.40;;;;;;;22.60;26.55;95172.31;6177279;28;103960;-59
2022/04/15 12:02:31;;;;;;;6.93;6.33;;;;;;;22.59;26.77;95170.72;6188903;28;103001;-59
2022/04/15 12:05:34;;;;;;;6.30;5.80;;;;;;;22.57;26.58;95166.81;6187903;28;102958;-59
2022/04/15 12:08:36;;;;;;;7.47;6.63;;;;;;;22.60;26.96;95169.63;6183871;28;103657;-55
2022/04/15 12:11:39;;;;;;;6.30;5.70;;;;;;;22.54;27.14;95160.16;6183708;28;104219;-59
2022/04/15 12:14:41;;;;;;;7.13;6.50;;;;;;;22.56;26.86;95160.66;6187451;28;103194;-61
2022/04/15 12:17:43;;;;;;;5.90;5.40;;;;;;;22.56;27.08;95157.19;6189043;28;103915;-61
2022/04/15 12:20:45;;;;;;;6.63;6.13;;;;;;;22.53;27.00;95153.25;6177102;28;102808;-60
2022/04/15 12:24:06;;;;;;;6.47;5.97;;;;;;;22.52;26.91;95146.34;6188574;28;104238;-61
2022/04/15 12:27:14;;;;;;;6.50;5.90;;;;;;;22.51;26.71;95142.09;6188098;28;103246;-59
2022/04/15 12:30:37;;;;;;;6.43;5.93;;;;;;;22.49;26.94;95133.59;6187919;28;103670;-60
2022/04/15 12:33:46;;;;;;;6.27;5.77;;;;;;;22.51;26.92;95126.09;6177485;28;102900;-62
2022/04/15 12:36:48;;;;;;;6.43;5.87;;;;;;;22.51;26.96;95125.31;6187649;28;103379;-61
2022/04/15 12:39:52;;;;;;;6.20;5.70;;;;;;;22.48;26.82;95115.25;6187838;28;103087;-60
2022/04/15 12:42:54;;;;;;;6.27;5.47;;;;;;;22.48;26.21;95118.69;6179781;28;103478;-59
2022/04/15 12:45:58;;;;;;;6.30;5.70;;;;;;;22.49;26.61;95114.94;6186086;28;105787;-60
2022/04/15 12:49:00;;;;;;;6.00;5.40;;;;;;;22.47;26.77;95106.47;6188486;28;102881;-59
2022/04/15 12:52:15;;;;;;;6.03;5.10;;;;;;;22.47;26.22;95090.47;6187416;28;103929;-61
2022/04/15 12:55:48;;;;;;;6.00;5.50;;;;;;;22.46;25.99;95094.22;6177979;28;104437;-60
2022/04/15 12:58:53;;;;;;;5.30;4.90;;;;;;;22.46;26.35;95085.44;6178497;28;104274;-60
2022/04/15 13:01:55;;;;;;;7.33;4.87;;;;;;;22.47;26.10;95076.34;6186268;28;104214;-60
2022/04/15 13:04:58;;;;;;;5.80;5.20;;;;;;;22.46;26.15;95075.56;6184643;28;104072;-58
2022/04/15 13:07:59;;;;;;;5.00;4.60;;;;;;;22.46;25.96;95066.78;6180286;28;102966;-59
2022/04/15 13:11:01;;;;;;;4.90;4.50;;;;;;;22.45;25.98;95066.00;6187724;28;104186;-61
2022/04/15 13:14:08;;;;;;;6.40;5.27;;;;;;;22.43;26.34;95062.84;6186490;28;103187;-60
2022/04/15 13:17:10;;;;;;;5.43;4.87;;;;;;;22.45;26.18;95051.88;6178091;28;103222;-60
2022/04/15 13:20:12;;;;;;;5.47;4.70;;;;;;;22.43;26.34;95046.84;6186966;28;103309;-60
2022/04/15 13:23:15;;;;;;;5.83;5.03;;;;;;;22.44;26.06;95051.09;6187156;28;102995;-61
2022/04/15 13:26:17;;;;;;;5.37;4.33;;;;;;;22.42;26.18;95035.41;6187125;28;102995;-60
2022/04/15 13:29:18;;;;;;;5.90;5.30;;;;;;;22.43;26.21;95033.50;6176188;28;103642;-59
2022/04/15 13:32:20;;;;;;;4.93;4.53;;;;;;;22.41;25.82;95023.16;6186828;28;103008;-60
2022/04/15 13:35:22;;;;;;;5.50;5.10;;;;;;;22.42;25.45;95023.94;6185981;28;103261;-60
2022/04/15 13:38:24;;;;;;;5.37;3.90;;;;;;;22.43;25.32;95017.53;6187581;28;103715;-60
2022/04/15 13:41:26;;;;;;;6.00;4.33;;;;;;;22.43;25.84;95017.53;6176815;28;105671;-60
2022/04/15 13:44:31;;;;;;;5.73;5.13;;;;;;;22.41;25.90;95009.03;6186847;28;103001;-60
2022/04/15 13:47:32;;;;;;;5.50;4.63;;;;;;;22.42;25.60;95005.28;6187001;28;103312;-60
2022/04/15 13:50:35;;;;;;;4.80;4.40;;;;;;;22.42;25.95;95006.06;6181788;28;102965;-60
2022/04/15 13:56:57;;;;;;;5.90;3.60;;;;;;;22.40;25.40;94986.94;6186163;28;103266;-60
2022/04/15 14:00:06;;;;;;;4.27;3.87;;;;;;;22.42;25.28;94990.06;6186112;28;102947;-58
2022/04/15 14:03:08;;;;;;;4.47;4.07;;;;;;;22.40;25.93;94978.16;6175826;28;103933;-60
2022/04/15 14:06:10;;;;;;;4.07;3.77;;;;;;;22.40;25.63;94975.47;6185601;28;103263;-59
2022/04/15 14:09:13;;;;;;;4.90;4.50;;;;;;;22.41;25.27;94969.06;6186606;28;103279;-60
2022/04/15 14:12:15;;;;;;;4.10;3.80;;;;;;;22.37;25.92;94960.09;6185902;28;103101;-60
2022/04/15 14:15:23;;;;;;;4.80;4.30;;;;;;;22.41;25.23;94969.84;6175001;28;104280;-59